createdAt,value
2019-03-22T00:04:45.239Z,7.03
2019-03-22T00:09:47.726Z,7.02
2019-03-22T00:14:50.217Z,6.81
2019-03-22T00:19:52.686Z,6.56
2019-03-22T00:24:55.147Z,6.45
2019-03-22T00:29:57.611Z,6.40
2019-03-22T00:35:00.090Z,6.40
2019-03-22T00:40:02.557Z,6.39
2019-03-22T00:45:07.840Z,6.40
2019-03-22T00:50:10.320Z,6.30
2019-03-22T00:55:12.780Z,6.32
2019-03-22T01:00:15.242Z,6.43
2019-03-22T01:05:17.707Z,6.14
2019-03-22T01:10:20.194Z,6.08
2019-03-22T01:15:22.674Z,6.06
2019-03-22T01:20:25.191Z,6.02
2019-03-22T01:25:27.659Z,5.90
2019-03-22T01:30:30.127Z,5.89
2019-03-22T01:35:35.634Z,5.88
2019-03-22T01:40:36.650Z,5.69
2019-03-22T01:45:39.118Z,5.64
2019-03-22T01:50:41.584Z,5.54
2019-03-22T01:55:44.047Z,5.57
2019-03-22T02:00:46.511Z,5.62
2019-03-22T02:05:48.975Z,5.23
2019-03-22T02:10:51.460Z,5.29
2019-03-22T02:15:53.904Z,5.48
2019-03-22T02:20:56.399Z,5.31
2019-03-22T02:25:58.869Z,5.32
2019-03-22T02:31:01.319Z,5.21
2019-03-22T02:36:03.772Z,5.10
2019-03-22T02:41:06.261Z,5.21
2019-03-22T02:46:08.714Z,5.08
2019-03-22T02:51:11.187Z,5.09
2019-03-22T02:56:13.753Z,5.08
2019-03-22T03:01:16.154Z,4.96
2019-03-22T03:06:18.616Z,4.78
2019-03-22T03:11:21.070Z,4.76
2019-03-22T03:16:23.535Z,4.81
2019-03-22T03:21:26.009Z,4.73
2019-03-22T03:26:28.483Z,4.58
2019-03-22T03:31:30.968Z,4.47
2019-03-22T03:36:35.061Z,4.47
2019-03-22T03:41:35.935Z,4.61
2019-03-22T03:46:38.390Z,4.63
2019-03-22T03:51:40.843Z,4.62
2019-03-22T03:56:43.310Z,4.37
2019-03-22T04:01:45.819Z,4.49
2019-03-22T04:06:48.347Z,4.35
2019-03-22T04:11:50.812Z,4.37
2019-03-22T04:16:53.298Z,4.28
2019-03-22T04:21:55.788Z,4.20
2019-03-22T04:26:58.438Z,4.10
2019-03-22T04:32:00.903Z,4.21
2019-03-22T04:37:03.368Z,4.19
2019-03-22T04:42:05.829Z,4.29
2019-03-22T04:47:08.316Z,4.17
2019-03-22T04:52:10.785Z,4.16
2019-03-22T04:57:13.249Z,4.17
2019-03-22T05:02:15.786Z,4.14
2019-03-22T05:07:18.248Z,4.12
2019-03-22T05:12:20.669Z,4.10
2019-03-22T05:17:23.133Z,4.09
2019-03-22T05:22:25.651Z,4.32
2019-03-22T05:27:28.132Z,4.42
2019-03-22T05:32:30.583Z,4.25
2019-03-22T05:37:33.047Z,4.16
2019-03-22T05:42:35.517Z,4.44
2019-03-22T05:47:37.988Z,4.62
2019-03-22T05:52:40.472Z,4.70
2019-03-22T05:57:42.960Z,4.66
2019-03-22T06:02:45.440Z,4.71
2019-03-22T06:07:47.912Z,4.82
2019-03-22T06:12:50.549Z,5.11
2019-03-22T06:17:53.010Z,5.33
2019-03-22T06:22:55.495Z,5.59
2019-03-22T06:27:57.965Z,5.76
2019-03-22T06:33:00.474Z,6.06
2019-03-22T06:38:02.938Z,6.18
2019-03-22T06:43:05.407Z,6.43
2019-03-22T06:48:07.880Z,6.88
2019-03-22T06:53:10.351Z,7.18
2019-03-22T06:58:12.809Z,7.19
2019-03-22T07:03:15.276Z,7.65
2019-03-22T07:08:17.755Z,8.03
2019-03-22T07:13:20.251Z,8.32
2019-03-22T07:18:22.733Z,8.62
2019-03-22T07:23:25.233Z,9.17
2019-03-22T07:28:27.691Z,9.76
2019-03-22T07:33:30.172Z,10.51
2019-03-22T07:38:32.645Z,11.18
2019-03-22T07:43:35.151Z,11.79
2019-03-22T07:48:37.614Z,13.09
2019-03-22T07:53:40.136Z,15.37
2019-03-22T07:58:42.603Z,19.56
2019-03-22T08:03:45.077Z,26.91
2019-03-22T08:08:47.548Z,31.44
2019-03-22T08:13:50.038Z,30.20
2019-03-22T08:18:52.512Z,33.21
2019-03-22T08:23:54.991Z,33.15
2019-03-22T08:28:57.500Z,35.56
2019-03-22T08:34:00.075Z,37.95
2019-03-22T08:39:02.580Z,33.85
2019-03-22T08:44:05.041Z,35.97
2019-03-22T08:49:09.512Z,34.60
2019-03-22T08:54:09.991Z,33.64
2019-03-22T08:59:13.540Z,33.53
2019-03-22T09:04:14.913Z,34.23
2019-03-22T09:09:41.577Z,35.28
2019-03-22T09:14:39.519Z,35.49
2019-03-22T09:19:42.009Z,38.10
2019-03-22T09:24:44.459Z,37.80
2019-03-22T09:29:47.518Z,35.70
2019-03-22T09:34:49.432Z,39.16
2019-03-22T09:39:51.913Z,38.95
2019-03-22T09:44:54.393Z,39.05
2019-03-22T09:49:56.909Z,38.85
2019-03-22T09:55:12.194Z,37.40
2019-03-22T10:00:01.840Z,34.74
2019-03-22T10:05:04.367Z,38.10
2019-03-22T10:10:06.789Z,41.68
2019-03-22T10:15:09.471Z,41.73
2019-03-22T10:20:22.637Z,42.77
2019-03-22T10:25:14.522Z,39.61
2019-03-22T10:30:16.968Z,37.23
2019-03-22T10:35:25.922Z,39.09
2019-03-22T10:40:21.936Z,39.69
2019-03-22T10:45:24.342Z,41.39
2019-03-22T10:50:26.874Z,42.64
2019-03-22T10:55:30.704Z,43.33
2019-03-22T11:00:31.725Z,44.08
2019-03-22T11:05:34.204Z,42.73
2019-03-22T11:10:36.659Z,39.76
2019-03-22T11:15:48.136Z,36.17
2019-03-22T11:20:41.718Z,33.36
2019-03-22T11:25:44.167Z,30.65
2019-03-22T11:30:46.656Z,28.10
2019-03-22T11:35:49.168Z,26.82
2019-03-22T11:40:51.638Z,25.76
2019-03-22T11:45:54.101Z,25.34
2019-03-22T11:50:56.582Z,24.47
2019-03-22T11:55:59.054Z,24.17
2019-03-22T12:01:01.513Z,23.99
2019-03-22T12:06:03.976Z,23.74
2019-03-22T12:11:06.430Z,23.34
2019-03-22T12:16:08.916Z,22.85
2019-03-22T12:21:11.376Z,23.00
2019-03-22T12:26:13.847Z,23.03
2019-03-22T12:31:16.324Z,23.25
2019-03-22T12:36:18.800Z,23.68
2019-03-22T12:41:21.263Z,23.58
2019-03-22T12:46:23.753Z,23.89
2019-03-22T12:51:26.238Z,23.57
2019-03-22T12:56:28.729Z,23.21
2019-03-22T13:01:31.192Z,23.03
2019-03-22T13:06:33.666Z,22.84
2019-03-22T13:11:36.299Z,22.94
2019-03-22T13:16:38.754Z,22.96
2019-03-22T13:21:41.217Z,23.12
2019-03-22T13:26:43.715Z,22.84
2019-03-22T13:31:46.197Z,22.44
2019-03-22T13:36:48.680Z,22.50
2019-03-22T13:41:51.150Z,22.55
2019-03-22T13:46:53.603Z,22.30
2019-03-22T13:51:56.072Z,22.09
2019-03-22T13:56:58.538Z,21.98
2019-03-22T14:02:01.032Z,21.86
2019-03-22T14:07:03.505Z,21.80
2019-03-22T14:12:05.993Z,21.62
2019-03-22T14:17:08.478Z,21.59
2019-03-22T14:22:10.958Z,21.39
2019-03-22T14:27:13.408Z,21.29
2019-03-22T14:32:15.869Z,21.60
2019-03-22T14:37:18.360Z,21.61
2019-03-22T14:42:20.826Z,21.56
2019-03-22T14:47:23.306Z,21.52
2019-03-22T14:52:25.760Z,21.42
2019-03-22T14:57:28.241Z,21.63
2019-03-22T15:02:30.716Z,21.67
2019-03-22T15:07:33.200Z,21.54
2019-03-22T15:12:35.645Z,21.48
2019-03-22T15:17:56.238Z,21.40
2019-03-22T15:23:10.695Z,21.17
2019-03-22T15:28:22.144Z,21.38
2019-03-22T15:33:34.645Z,21.06
2019-03-22T15:38:48.030Z,21.17
2019-03-22T15:43:50.310Z,21.36
2019-03-22T15:48:52.787Z,21.51
2019-03-22T15:53:55.244Z,21.57
2019-03-22T15:58:57.766Z,21.25
2019-03-22T16:04:00.247Z,21.10
2019-03-22T16:09:02.701Z,20.78
2019-03-22T16:14:05.169Z,20.59
2019-03-22T16:19:07.615Z,20.17
2019-03-22T16:24:10.668Z,19.65
2019-03-22T16:29:13.103Z,19.26
2019-03-22T16:34:15.568Z,19.05
2019-03-22T16:39:18.064Z,19.08
2019-03-22T16:44:20.528Z,18.65
2019-03-22T16:49:22.986Z,18.31
2019-03-22T16:54:29.499Z,18.05
2019-03-22T16:59:31.969Z,17.84
2019-03-22T17:04:34.440Z,17.52
2019-03-22T17:09:36.920Z,17.19
2019-03-22T17:14:39.383Z,16.97
2019-03-22T17:19:41.861Z,16.85
2019-03-22T17:24:44.339Z,16.71
2019-03-22T17:29:46.803Z,16.57
2019-03-22T17:34:49.289Z,16.26
2019-03-22T17:39:51.751Z,16.08
2019-03-22T17:44:54.222Z,16.02
2019-03-22T17:49:56.686Z,15.83
2019-03-22T17:54:59.153Z,15.79
2019-03-22T18:00:01.613Z,15.52
2019-03-22T18:05:04.101Z,15.38
2019-03-22T18:10:06.576Z,15.23
2019-03-22T18:15:09.043Z,15.09
2019-03-22T18:20:14.200Z,14.90
2019-03-22T18:25:16.668Z,14.76
2019-03-22T18:30:19.128Z,14.42
2019-03-22T18:35:21.612Z,14.48
2019-03-22T18:40:24.067Z,14.21
2019-03-22T18:45:26.532Z,14.09
2019-03-22T18:50:28.999Z,14.01
2019-03-22T18:55:31.481Z,13.91
2019-03-22T19:00:33.959Z,13.76
2019-03-22T19:05:36.447Z,13.58
2019-03-22T19:10:38.950Z,13.38
2019-03-22T19:15:41.446Z,13.24
2019-03-22T19:20:43.926Z,13.00
2019-03-22T19:25:46.409Z,12.92
2019-03-22T19:30:48.882Z,13.01
2019-03-22T19:35:51.372Z,12.73
2019-03-22T19:40:53.848Z,12.51
2019-03-22T19:45:56.354Z,12.50
2019-03-22T19:50:58.801Z,12.33
2019-03-22T19:56:01.278Z,12.39
2019-03-22T20:01:03.778Z,12.16
2019-03-22T20:06:06.274Z,12.08
2019-03-22T20:11:08.742Z,11.88
2019-03-22T20:16:11.200Z,11.75
2019-03-22T20:21:13.665Z,11.67
2019-03-22T20:26:16.155Z,11.66
2019-03-22T20:31:18.653Z,11.63
2019-03-22T20:36:21.127Z,11.40
2019-03-22T20:41:23.604Z,11.40
2019-03-22T20:46:26.073Z,11.56
2019-03-22T20:51:28.560Z,11.50
2019-03-22T20:56:31.032Z,11.49
2019-03-22T21:01:33.507Z,11.38
2019-03-22T21:06:35.989Z,11.21
2019-03-22T21:11:38.455Z,11.07
2019-03-22T21:16:40.941Z,11.18
2019-03-22T21:21:43.422Z,11.29
2019-03-22T21:26:45.904Z,11.18
2019-03-22T21:31:48.399Z,11.07
2019-03-22T21:36:50.863Z,10.88
2019-03-22T21:41:53.343Z,10.75
2019-03-22T21:46:55.898Z,10.85
2019-03-22T21:51:58.307Z,11.02
2019-03-22T21:57:00.805Z,10.99
2019-03-22T22:02:03.320Z,10.78
2019-03-22T22:07:05.850Z,10.92
2019-03-22T22:12:08.342Z,10.94
2019-03-22T22:17:10.842Z,10.73
2019-03-22T22:22:13.318Z,10.61
2019-03-22T22:27:15.839Z,10.69
2019-03-22T22:32:18.294Z,10.58
2019-03-22T22:37:20.805Z,10.60
2019-03-22T22:42:23.293Z,10.42
2019-03-22T22:47:25.776Z,10.33
2019-03-22T22:52:31.049Z,10.17
2019-03-22T22:57:33.542Z,10.00
2019-03-22T23:02:36.010Z,10.10
2019-03-22T23:07:38.515Z,9.92
2019-03-22T23:12:40.976Z,9.73
2019-03-22T23:17:43.455Z,9.64
2019-03-22T23:22:45.906Z,9.53
2019-03-22T23:27:48.383Z,9.46
2019-03-22T23:32:50.869Z,9.41
2019-03-22T23:37:53.341Z,9.31
2019-03-22T23:42:55.827Z,9.26
2019-03-22T23:47:58.300Z,9.28
2019-03-22T23:53:00.776Z,9.17
2019-03-22T23:58:03.249Z,9.14
